Terminal Aerodrome Forecast
Issued by NWS

Home | Current Version | Previous Version | Text Only | Print | Product List | Glossary On
Versions: 1 2 3 4 5 6 7 8 9 10 11 12 13 14 15 16
000
FTUS44 KSJT 292300
TAFJCT
TAF
KJCT 292334Z 3000/3024 VRB06KT P6SM SCT150
     FM300100 VRB05KT 5SM TSRA BKN050CB
      TEMPO 3001/3003 VRB25G35KT 2SM +TSRA BKN050CB
     FM301800 16007KT P6SM SCT070=

USA.gov is the U.S. government's official web portal to all federal, state and local government web resources and services.